sensor_id;sensor_type;location;lat;lon;timestamp;P1;durP1;ratioP1;P2;durP2;ratioP2
65871;SDS011;52653;50.080;21.992;2023-03-26T00:00:19;22.90;;;14.90;;
65871;SDS011;52653;50.080;21.992;2023-03-26T00:03:12;20.00;;;12.60;;
65871;SDS011;52653;50.080;21.992;2023-03-26T00:06:01;19.00;;;12.20;;
65871;SDS011;52653;50.080;21.992;2023-03-26T00:08:40;17.50;;;12.10;;
65871;SDS011;52653;50.080;21.992;2023-03-26T00:11:26;19.50;;;12.30;;
65871;SDS011;52653;50.080;21.992;2023-03-26T00:14:02;20.20;;;12.90;;
65871;SDS011;52653;50.080;21.992;2023-03-26T00:16:38;20.70;;;12.90;;
65871;SDS011;52653;50.080;21.992;2023-03-26T00:19:23;18.10;;;12.50;;
65871;SDS011;52653;50.080;21.992;2023-03-26T00:21:56;18.20;;;13.00;;
65871;SDS011;52653;50.080;21.992;2023-03-26T00:24:31;17.00;;;11.50;;
65871;SDS011;52653;50.080;21.992;2023-03-26T00:27:07;17.20;;;11.80;;
65871;SDS011;52653;50.080;21.992;2023-03-26T00:29:40;17.90;;;11.60;;
65871;SDS011;52653;50.080;21.992;2023-03-26T00:32:16;18.00;;;11.00;;
65871;SDS011;52653;50.080;21.992;2023-03-26T00:34:49;16.70;;;10.20;;
65871;SDS011;52653;50.080;21.992;2023-03-26T00:37:25;15.40;;;10.60;;
65871;SDS011;52653;50.080;21.992;2023-03-26T00:39:58;12.50;;;8.80;;
65871;SDS011;52653;50.080;21.992;2023-03-26T00:42:35;13.50;;;8.70;;
65871;SDS011;52653;50.080;21.992;2023-03-26T00:45:11;13.30;;;8.70;;
65871;SDS011;52653;50.080;21.992;2023-03-26T00:47:46;12.90;;;7.60;;
65871;SDS011;52653;50.080;21.992;2023-03-26T00:50:20;12.20;;;7.40;;
65871;SDS011;52653;50.080;21.992;2023-03-26T00:53:03;10.90;;;6.80;;
65871;SDS011;52653;50.080;21.992;2023-03-26T00:55:37;10.80;;;7.20;;
65871;SDS011;52653;50.080;21.992;2023-03-26T00:58:13;10.90;;;7.00;;
65871;SDS011;52653;50.080;21.992;2023-03-26T01:00:47;11.10;;;6.30;;
65871;SDS011;52653;50.080;21.992;2023-03-26T01:03:26;9.40;;;6.30;;
65871;SDS011;52653;50.080;21.992;2023-03-26T01:06:15;12.30;;;6.60;;
65871;SDS011;52653;50.080;21.992;2023-03-26T01:08:57;10.70;;;6.20;;
65871;SDS011;52653;50.080;21.992;2023-03-26T01:11:34;10.10;;;6.90;;
65871;SDS011;52653;50.080;21.992;2023-03-26T01:14:11;11.40;;;7.50;;
65871;SDS011;52653;50.080;21.992;2023-03-26T01:16:48;11.10;;;7.60;;
65871;SDS011;52653;50.080;21.992;2023-03-26T01:19:24;9.90;;;6.10;;
65871;SDS011;52653;50.080;21.992;2023-03-26T01:22:07;9.70;;;5.30;;
65871;SDS011;52653;50.080;21.992;2023-03-26T01:24:43;8.10;;;5.00;;
65871;SDS011;52653;50.080;21.992;2023-03-26T01:27:27;8.20;;;5.00;;
65871;SDS011;52653;50.080;21.992;2023-03-26T01:30:12;9.50;;;4.90;;
65871;SDS011;52653;50.080;21.992;2023-03-26T01:32:58;8.10;;;4.90;;
65871;SDS011;52653;50.080;21.992;2023-03-26T01:35:53;8.10;;;4.60;;
65871;SDS011;52653;50.080;21.992;2023-03-26T01:38:30;8.10;;;4.90;;
65871;SDS011;52653;50.080;21.992;2023-03-26T01:41:21;8.90;;;5.10;;
65871;SDS011;52653;50.080;21.992;2023-03-26T01:44:13;9.10;;;5.60;;
65871;SDS011;52653;50.080;21.992;2023-03-26T01:46:53;9.00;;;5.20;;
65871;SDS011;52653;50.080;21.992;2023-03-26T01:52:04;10.20;;;6.00;;
65871;SDS011;52653;50.080;21.992;2023-03-26T01:54:42;10.40;;;6.70;;
65871;SDS011;52653;50.080;21.992;2023-03-26T01:57:21;9.20;;;6.00;;
65871;SDS011;52653;50.080;21.992;2023-03-26T02:00:12;11.40;;;7.00;;
65871;SDS011;52653;50.080;21.992;2023-03-26T02:03:13;10.50;;;6.40;;
65871;SDS011;52653;50.080;21.992;2023-03-26T02:05:53;10.60;;;6.90;;
65871;SDS011;52653;50.080;21.992;2023-03-26T02:08:55;10.60;;;6.90;;
65871;SDS011;52653;50.080;21.992;2023-03-26T02:11:44;11.70;;;6.40;;
65871;SDS011;52653;50.080;21.992;2023-03-26T02:14:21;12.10;;;6.50;;
65871;SDS011;52653;50.080;21.992;2023-03-26T02:16:58;11.80;;;7.10;;
65871;SDS011;52653;50.080;21.992;2023-03-26T02:19:34;10.20;;;5.90;;
65871;SDS011;52653;50.080;21.992;2023-03-26T02:22:13;9.70;;;5.90;;
65871;SDS011;52653;50.080;21.992;2023-03-26T02:24:47;10.50;;;5.50;;
65871;SDS011;52653;50.080;21.992;2023-03-26T02:27:20;9.10;;;5.60;;
65871;SDS011;52653;50.080;21.992;2023-03-26T02:29:57;12.00;;;6.60;;
65871;SDS011;52653;50.080;21.992;2023-03-26T02:32:32;10.20;;;6.30;;
65871;SDS011;52653;50.080;21.992;2023-03-26T02:35:08;10.90;;;5.40;;
65871;SDS011;52653;50.080;21.992;2023-03-26T02:37:46;9.10;;;5.10;;
65871;SDS011;52653;50.080;21.992;2023-03-26T02:40:21;7.60;;;4.70;;
65871;SDS011;52653;50.080;21.992;2023-03-26T02:42:55;8.10;;;4.40;;
65871;SDS011;52653;50.080;21.992;2023-03-26T02:45:40;9.00;;;4.70;;
65871;SDS011;52653;50.080;21.992;2023-03-26T02:48:34;8.40;;;4.60;;
65871;SDS011;52653;50.080;21.992;2023-03-26T02:51:15;8.20;;;4.40;;
65871;SDS011;52653;50.080;21.992;2023-03-26T02:54:02;8.00;;;4.30;;
65871;SDS011;52653;50.080;21.992;2023-03-26T02:56:36;8.30;;;4.40;;
65871;SDS011;52653;50.080;21.992;2023-03-26T02:59:19;8.60;;;4.50;;
65871;SDS011;52653;50.080;21.992;2023-03-26T03:02:10;9.40;;;4.00;;
65871;SDS011;52653;50.080;21.992;2023-03-26T03:04:44;6.90;;;3.50;;
65871;SDS011;52653;50.080;21.992;2023-03-26T03:07:17;6.80;;;3.60;;
65871;SDS011;52653;50.080;21.992;2023-03-26T03:09:53;7.60;;;3.60;;
65871;SDS011;52653;50.080;21.992;2023-03-26T03:12:51;7.80;;;4.30;;
65871;SDS011;52653;50.080;21.992;2023-03-26T03:15:24;5.80;;;3.50;;
65871;SDS011;52653;50.080;21.992;2023-03-26T03:18:02;7.60;;;3.50;;
65871;SDS011;52653;50.080;21.992;2023-03-26T03:20:36;8.00;;;3.30;;
65871;SDS011;52653;50.080;21.992;2023-03-26T03:23:09;6.80;;;3.80;;
65871;SDS011;52653;50.080;21.992;2023-03-26T03:25:45;6.00;;;3.50;;
65871;SDS011;52653;50.080;21.992;2023-03-26T03:28:21;5.80;;;3.40;;
65871;SDS011;52653;50.080;21.992;2023-03-26T03:30:57;5.90;;;3.20;;
65871;SDS011;52653;50.080;21.992;2023-03-26T03:33:33;7.60;;;3.70;;
65871;SDS011;52653;50.080;21.992;2023-03-26T03:36:08;5.90;;;3.40;;
65871;SDS011;52653;50.080;21.992;2023-03-26T03:38:56;6.90;;;3.50;;
65871;SDS011;52653;50.080;21.992;2023-03-26T03:41:31;6.20;;;3.60;;
65871;SDS011;52653;50.080;21.992;2023-03-26T03:44:07;6.50;;;3.00;;
65871;SDS011;52653;50.080;21.992;2023-03-26T03:46:40;5.90;;;3.00;;
65871;SDS011;52653;50.080;21.992;2023-03-26T03:49:13;6.00;;;3.10;;
65871;SDS011;52653;50.080;21.992;2023-03-26T03:51:48;6.10;;;3.20;;
65871;SDS011;52653;50.080;21.992;2023-03-26T03:54:27;5.30;;;2.70;;
65871;SDS011;52653;50.080;21.992;2023-03-26T03:57:26;6.10;;;3.00;;
65871;SDS011;52653;50.080;21.992;2023-03-26T04:00:06;5.30;;;2.50;;
65871;SDS011;52653;50.080;21.992;2023-03-26T04:02:44;6.10;;;2.70;;
65871;SDS011;52653;50.080;21.992;2023-03-26T04:05:17;5.20;;;2.50;;
65871;SDS011;52653;50.080;21.992;2023-03-26T04:07:54;5.70;;;2.10;;
65871;SDS011;52653;50.080;21.992;2023-03-26T04:10:28;4.20;;;2.20;;
65871;SDS011;52653;50.080;21.992;2023-03-26T04:13:21;5.20;;;2.50;;
65871;SDS011;52653;50.080;21.992;2023-03-26T04:16:03;4.10;;;1.90;;
65871;SDS011;52653;50.080;21.992;2023-03-26T04:18:39;4.90;;;2.40;;
65871;SDS011;52653;50.080;21.992;2023-03-26T04:21:22;4.00;;;2.20;;
65871;SDS011;52653;50.080;21.992;2023-03-26T04:23:59;3.80;;;2.00;;
65871;SDS011;52653;50.080;21.992;2023-03-26T04:26:55;5.20;;;2.20;;
65871;SDS011;52653;50.080;21.992;2023-03-26T04:29:37;5.10;;;2.10;;
65871;SDS011;52653;50.080;21.992;2023-03-26T04:32:19;4.90;;;2.00;;
65871;SDS011;52653;50.080;21.992;2023-03-26T04:35:02;4.60;;;2.10;;
65871;SDS011;52653;50.080;21.992;2023-03-26T04:37:47;5.00;;;1.90;;
65871;SDS011;52653;50.080;21.992;2023-03-26T04:40:28;3.40;;;1.50;;
65871;SDS011;52653;50.080;21.992;2023-03-26T04:43:15;4.20;;;1.90;;
65871;SDS011;52653;50.080;21.992;2023-03-26T04:46:07;4.40;;;2.00;;
65871;SDS011;52653;50.080;21.992;2023-03-26T04:48:49;3.60;;;1.90;;
65871;SDS011;52653;50.080;21.992;2023-03-26T04:51:27;3.40;;;1.70;;
65871;SDS011;52653;50.080;21.992;2023-03-26T04:54:14;4.00;;;1.50;;
65871;SDS011;52653;50.080;21.992;2023-03-26T04:56:56;3.90;;;1.40;;
65871;SDS011;52653;50.080;21.992;2023-03-26T04:59:56;3.40;;;1.50;;
65871;SDS011;52653;50.080;21.992;2023-03-26T05:02:49;4.20;;;1.50;;
65871;SDS011;52653;50.080;21.992;2023-03-26T05:05:45;3.80;;;1.40;;
65871;SDS011;52653;50.080;21.992;2023-03-26T05:08:29;3.50;;;1.30;;
65871;SDS011;52653;50.080;21.992;2023-03-26T05:11:22;2.70;;;1.20;;
65871;SDS011;52653;50.080;21.992;2023-03-26T05:14:17;3.40;;;1.20;;
65871;SDS011;52653;50.080;21.992;2023-03-26T05:17:03;3.20;;;1.50;;
65871;SDS011;52653;50.080;21.992;2023-03-26T05:20:00;3.80;;;1.50;;
65871;SDS011;52653;50.080;21.992;2023-03-26T05:22:54;4.20;;;1.50;;
65871;SDS011;52653;50.080;21.992;2023-03-26T05:25:47;2.70;;;1.20;;
65871;SDS011;52653;50.080;21.992;2023-03-26T05:28:41;2.00;;;1.20;;
65871;SDS011;52653;50.080;21.992;2023-03-26T05:31:37;3.50;;;1.40;;
65871;SDS011;52653;50.080;21.992;2023-03-26T05:34:30;3.00;;;1.30;;
65871;SDS011;52653;50.080;21.992;2023-03-26T05:37:24;4.30;;;1.50;;
65871;SDS011;52653;50.080;21.992;2023-03-26T05:40:20;5.20;;;1.80;;
65871;SDS011;52653;50.080;21.992;2023-03-26T05:43:07;3.80;;;1.60;;
65871;SDS011;52653;50.080;21.992;2023-03-26T05:46:09;2.80;;;1.20;;
65871;SDS011;52653;50.080;21.992;2023-03-26T05:49:02;4.30;;;1.80;;
65871;SDS011;52653;50.080;21.992;2023-03-26T05:51:55;4.00;;;1.80;;
65871;SDS011;52653;50.080;21.992;2023-03-26T05:54:52;2.90;;;1.40;;
65871;SDS011;52653;50.080;21.992;2023-03-26T05:58:03;4.10;;;1.60;;
65871;SDS011;52653;50.080;21.992;2023-03-26T06:00:57;4.00;;;1.50;;
65871;SDS011;52653;50.080;21.992;2023-03-26T06:03:54;3.90;;;1.60;;
65871;SDS011;52653;50.080;21.992;2023-03-26T06:06:40;3.80;;;1.40;;
65871;SDS011;52653;50.080;21.992;2023-03-26T06:09:14;3.50;;;1.40;;
65871;SDS011;52653;50.080;21.992;2023-03-26T06:12:08;3.60;;;1.20;;
65871;SDS011;52653;50.080;21.992;2023-03-26T06:14:45;3.80;;;1.40;;
65871;SDS011;52653;50.080;21.992;2023-03-26T06:17:27;2.40;;;1.10;;
65871;SDS011;52653;50.080;21.992;2023-03-26T06:20:08;3.40;;;1.70;;
65871;SDS011;52653;50.080;21.992;2023-03-26T06:23:04;3.50;;;1.30;;
65871;SDS011;52653;50.080;21.992;2023-03-26T06:25:53;3.40;;;1.50;;
65871;SDS011;52653;50.080;21.992;2023-03-26T06:29:00;3.50;;;1.30;;
65871;SDS011;52653;50.080;21.992;2023-03-26T06:32:02;3.70;;;1.20;;
65871;SDS011;52653;50.080;21.992;2023-03-26T06:34:52;3.50;;;1.40;;
65871;SDS011;52653;50.080;21.992;2023-03-26T06:37:35;5.30;;;1.50;;
65871;SDS011;52653;50.080;21.992;2023-03-26T06:40:28;3.50;;;1.50;;
65871;SDS011;52653;50.080;21.992;2023-03-26T06:43:22;2.30;;;1.00;;
65871;SDS011;52653;50.080;21.992;2023-03-26T06:46:15;2.80;;;1.20;;
65871;SDS011;52653;50.080;21.992;2023-03-26T06:49:27;3.10;;;1.40;;
65871;SDS011;52653;50.080;21.992;2023-03-26T06:52:21;4.20;;;1.30;;
65871;SDS011;52653;50.080;21.992;2023-03-26T06:55:15;3.00;;;1.30;;
65871;SDS011;52653;50.080;21.992;2023-03-26T06:58:09;4.30;;;2.00;;
65871;SDS011;52653;50.080;21.992;2023-03-26T07:01:04;2.80;;;1.40;;
65871;SDS011;52653;50.080;21.992;2023-03-26T07:03:55;3.40;;;1.60;;
65871;SDS011;52653;50.080;21.992;2023-03-26T07:06:48;3.40;;;1.40;;
65871;SDS011;52653;50.080;21.992;2023-03-26T07:09:40;3.60;;;1.20;;
65871;SDS011;52653;50.080;21.992;2023-03-26T07:12:44;5.10;;;1.50;;
65871;SDS011;52653;50.080;21.992;2023-03-26T07:15:36;2.90;;;1.30;;
65871;SDS011;52653;50.080;21.992;2023-03-26T07:18:31;5.00;;;1.60;;
65871;SDS011;52653;50.080;21.992;2023-03-26T07:24:12;3.60;;;1.50;;
65871;SDS011;52653;50.080;21.992;2023-03-26T07:27:08;3.70;;;1.60;;
65871;SDS011;52653;50.080;21.992;2023-03-26T07:30:09;4.30;;;1.50;;
65871;SDS011;52653;50.080;21.992;2023-03-26T07:33:05;4.70;;;1.60;;
65871;SDS011;52653;50.080;21.992;2023-03-26T07:36:08;5.40;;;1.90;;
65871;SDS011;52653;50.080;21.992;2023-03-26T07:39:16;4.10;;;1.40;;
65871;SDS011;52653;50.080;21.992;2023-03-26T07:42:33;3.30;;;1.20;;
65871;SDS011;52653;50.080;21.992;2023-03-26T07:45:45;3.60;;;1.20;;
65871;SDS011;52653;50.080;21.992;2023-03-26T07:48:39;3.60;;;1.40;;
65871;SDS011;52653;50.080;21.992;2023-03-26T07:51:37;3.70;;;1.30;;
65871;SDS011;52653;50.080;21.992;2023-03-26T07:54:24;4.10;;;1.30;;
65871;SDS011;52653;50.080;21.992;2023-03-26T07:57:20;3.80;;;1.30;;
65871;SDS011;52653;50.080;21.992;2023-03-26T08:00:25;3.00;;;1.10;;
65871;SDS011;52653;50.080;21.992;2023-03-26T08:03:23;3.70;;;1.50;;
65871;SDS011;52653;50.080;21.992;2023-03-26T08:06:34;4.20;;;1.90;;
65871;SDS011;52653;50.080;21.992;2023-03-26T08:09:49;4.40;;;1.50;;
65871;SDS011;52653;50.080;21.992;2023-03-26T08:12:47;4.00;;;1.50;;
65871;SDS011;52653;50.080;21.992;2023-03-26T08:15:29;2.90;;;1.20;;
65871;SDS011;52653;50.080;21.992;2023-03-26T08:18:14;4.10;;;1.80;;
65871;SDS011;52653;50.080;21.992;2023-03-26T08:20:59;3.80;;;1.30;;
65871;SDS011;52653;50.080;21.992;2023-03-26T08:23:46;4.60;;;1.70;;
65871;SDS011;52653;50.080;21.992;2023-03-26T08:26:32;5.40;;;1.30;;
65871;SDS011;52653;50.080;21.992;2023-03-26T08:29:15;3.70;;;1.30;;
65871;SDS011;52653;50.080;21.992;2023-03-26T08:31:57;3.30;;;1.50;;
65871;SDS011;52653;50.080;21.992;2023-03-26T08:34:30;5.10;;;1.50;;
65871;SDS011;52653;50.080;21.992;2023-03-26T08:37:25;6.20;;;1.90;;
65871;SDS011;52653;50.080;21.992;2023-03-26T08:39:58;6.00;;;2.50;;
65871;SDS011;52653;50.080;21.992;2023-03-26T08:45:50;14.10;;;7.40;;
65871;SDS011;52653;50.080;21.992;2023-03-26T08:49:12;12.00;;;7.20;;
65871;SDS011;52653;50.080;21.992;2023-03-26T08:55:20;5.70;;;2.00;;
65871;SDS011;52653;50.080;21.992;2023-03-26T09:02:01;5.60;;;2.10;;
65871;SDS011;52653;50.080;21.992;2023-03-26T09:17:53;9.50;;;4.00;;
65871;SDS011;52653;50.080;21.992;2023-03-26T09:24:21;4.90;;;2.10;;
65871;SDS011;52653;50.080;21.992;2023-03-26T09:27:24;5.10;;;2.40;;
65871;SDS011;52653;50.080;21.992;2023-03-26T09:33:55;5.50;;;2.00;;
65871;SDS011;52653;50.080;21.992;2023-03-26T09:40:17;5.10;;;2.20;;
65871;SDS011;52653;50.080;21.992;2023-03-26T09:46:33;6.80;;;2.90;;
65871;SDS011;52653;50.080;21.992;2023-03-26T09:49:33;7.60;;;2.40;;
65871;SDS011;52653;50.080;21.992;2023-03-26T09:52:40;6.90;;;2.60;;
65871;SDS011;52653;50.080;21.992;2023-03-26T09:55:46;7.20;;;2.20;;
65871;SDS011;52653;50.080;21.992;2023-03-26T09:58:48;5.30;;;2.40;;
65871;SDS011;52653;50.080;21.992;2023-03-26T10:02:03;6.10;;;2.40;;
65871;SDS011;52653;50.080;21.992;2023-03-26T10:05:39;5.80;;;2.60;;
65871;SDS011;52653;50.080;21.992;2023-03-26T10:08:53;5.20;;;1.80;;
65871;SDS011;52653;50.080;21.992;2023-03-26T10:11:51;4.90;;;1.90;;
65871;SDS011;52653;50.080;21.992;2023-03-26T10:17:27;5.90;;;1.90;;
65871;SDS011;52653;50.080;21.992;2023-03-26T10:20:30;4.10;;;1.40;;
65871;SDS011;52653;50.080;21.992;2023-03-26T10:23:38;4.40;;;1.60;;
65871;SDS011;52653;50.080;21.992;2023-03-26T10:26:33;4.20;;;1.60;;
65871;SDS011;52653;50.080;21.992;2023-03-26T10:33:21;5.80;;;1.90;;
65871;SDS011;52653;50.080;21.992;2023-03-26T10:36:22;6.70;;;1.90;;
65871;SDS011;52653;50.080;21.992;2023-03-26T10:39:25;4.50;;;1.60;;
65871;SDS011;52653;50.080;21.992;2023-03-26T10:42:20;4.20;;;1.60;;
65871;SDS011;52653;50.080;21.992;2023-03-26T10:45:20;4.20;;;1.60;;
65871;SDS011;52653;50.080;21.992;2023-03-26T10:48:11;4.10;;;1.30;;
65871;SDS011;52653;50.080;21.992;2023-03-26T10:51:28;5.20;;;2.60;;
65871;SDS011;52653;50.080;21.992;2023-03-26T10:54:24;3.60;;;1.40;;
65871;SDS011;52653;50.080;21.992;2023-03-26T10:57:14;5.30;;;1.70;;
65871;SDS011;52653;50.080;21.992;2023-03-26T11:00:18;3.30;;;1.50;;
65871;SDS011;52653;50.080;21.992;2023-03-26T11:03:08;4.50;;;1.40;;
65871;SDS011;52653;50.080;21.992;2023-03-26T11:05:53;4.90;;;1.70;;
65871;SDS011;52653;50.080;21.992;2023-03-26T11:08:35;3.20;;;1.40;;
65871;SDS011;52653;50.080;21.992;2023-03-26T11:11:19;5.00;;;1.60;;
65871;SDS011;52653;50.080;21.992;2023-03-26T11:13:57;5.60;;;2.00;;
65871;SDS011;52653;50.080;21.992;2023-03-26T11:16:50;5.40;;;2.10;;
65871;SDS011;52653;50.080;21.992;2023-03-26T11:19:33;5.00;;;2.00;;
65871;SDS011;52653;50.080;21.992;2023-03-26T11:22:25;4.10;;;1.70;;
65871;SDS011;52653;50.080;21.992;2023-03-26T11:25:07;4.00;;;1.70;;
65871;SDS011;52653;50.080;21.992;2023-03-26T11:28:06;3.30;;;1.60;;
65871;SDS011;52653;50.080;21.992;2023-03-26T11:30:50;5.00;;;2.20;;
65871;SDS011;52653;50.080;21.992;2023-03-26T11:33:33;4.20;;;2.00;;
65871;SDS011;52653;50.080;21.992;2023-03-26T11:36:24;5.10;;;2.10;;
65871;SDS011;52653;50.080;21.992;2023-03-26T11:39:02;5.80;;;2.40;;
65871;SDS011;52653;50.080;21.992;2023-03-26T11:41:50;6.10;;;2.10;;
65871;SDS011;52653;50.080;21.992;2023-03-26T11:44:39;5.20;;;2.10;;
65871;SDS011;52653;50.080;21.992;2023-03-26T11:47:17;5.90;;;2.10;;
65871;SDS011;52653;50.080;21.992;2023-03-26T11:49:57;5.70;;;2.00;;
65871;SDS011;52653;50.080;21.992;2023-03-26T11:52:33;6.80;;;3.10;;
65871;SDS011;52653;50.080;21.992;2023-03-26T11:55:09;19.20;;;10.80;;
65871;SDS011;52653;50.080;21.992;2023-03-26T11:57:49;12.00;;;6.50;;
65871;SDS011;52653;50.080;21.992;2023-03-26T12:00:43;8.20;;;3.70;;
65871;SDS011;52653;50.080;21.992;2023-03-26T12:03:28;3.70;;;1.60;;
65871;SDS011;52653;50.080;21.992;2023-03-26T12:06:09;4.80;;;2.10;;
65871;SDS011;52653;50.080;21.992;2023-03-26T12:08:59;8.30;;;4.90;;
65871;SDS011;52653;50.080;21.992;2023-03-26T12:11:34;3.20;;;1.60;;
65871;SDS011;52653;50.080;21.992;2023-03-26T12:14:12;6.70;;;3.60;;
65871;SDS011;52653;50.080;21.992;2023-03-26T12:16:59;4.30;;;1.70;;
65871;SDS011;52653;50.080;21.992;2023-03-26T12:19:53;3.50;;;1.30;;
65871;SDS011;52653;50.080;21.992;2023-03-26T12:22:36;5.90;;;2.30;;
65871;SDS011;52653;50.080;21.992;2023-03-26T12:25:16;7.30;;;3.70;;
65871;SDS011;52653;50.080;21.992;2023-03-26T12:28:17;6.00;;;1.80;;
65871;SDS011;52653;50.080;21.992;2023-03-26T12:31:12;4.00;;;1.50;;
65871;SDS011;52653;50.080;21.992;2023-03-26T12:34:04;5.20;;;1.70;;
65871;SDS011;52653;50.080;21.992;2023-03-26T12:36:54;5.60;;;1.80;;
65871;SDS011;52653;50.080;21.992;2023-03-26T12:39:45;2.30;;;0.70;;
65871;SDS011;52653;50.080;21.992;2023-03-26T12:42:39;3.00;;;1.00;;
65871;SDS011;52653;50.080;21.992;2023-03-26T12:45:38;3.30;;;1.10;;
65871;SDS011;52653;50.080;21.992;2023-03-26T12:48:16;2.80;;;0.90;;
65871;SDS011;52653;50.080;21.992;2023-03-26T12:50:52;1.90;;;0.70;;
65871;SDS011;52653;50.080;21.992;2023-03-26T12:53:55;3.30;;;1.00;;
65871;SDS011;52653;50.080;21.992;2023-03-26T12:56:44;2.40;;;1.10;;
65871;SDS011;52653;50.080;21.992;2023-03-26T13:03:02;2.70;;;1.00;;
65871;SDS011;52653;50.080;21.992;2023-03-26T13:06:00;2.70;;;0.90;;
65871;SDS011;52653;50.080;21.992;2023-03-26T13:08:58;2.00;;;1.10;;
65871;SDS011;52653;50.080;21.992;2023-03-26T13:11:54;2.80;;;1.10;;
65871;SDS011;52653;50.080;21.992;2023-03-26T13:14:57;3.70;;;1.00;;
65871;SDS011;52653;50.080;21.992;2023-03-26T13:18:04;2.90;;;1.10;;
65871;SDS011;52653;50.080;21.992;2023-03-26T13:20:53;2.60;;;1.10;;
65871;SDS011;52653;50.080;21.992;2023-03-26T13:23:46;2.10;;;0.80;;
65871;SDS011;52653;50.080;21.992;2023-03-26T13:26:36;2.00;;;0.90;;
65871;SDS011;52653;50.080;21.992;2023-03-26T13:29:21;3.00;;;0.90;;
65871;SDS011;52653;50.080;21.992;2023-03-26T13:32:07;2.90;;;1.20;;
65871;SDS011;52653;50.080;21.992;2023-03-26T13:34:54;2.40;;;1.20;;
65871;SDS011;52653;50.080;21.992;2023-03-26T13:37:59;3.70;;;1.50;;
65871;SDS011;52653;50.080;21.992;2023-03-26T13:40:46;3.60;;;1.70;;
65871;SDS011;52653;50.080;21.992;2023-03-26T13:43:39;4.60;;;1.60;;
65871;SDS011;52653;50.080;21.992;2023-03-26T13:46:22;2.60;;;1.00;;
65871;SDS011;52653;50.080;21.992;2023-03-26T13:49:10;2.80;;;1.30;;
65871;SDS011;52653;50.080;21.992;2023-03-26T13:51:49;3.10;;;1.10;;
65871;SDS011;52653;50.080;21.992;2023-03-26T13:54:46;3.50;;;1.20;;
65871;SDS011;52653;50.080;21.992;2023-03-26T13:57:28;4.40;;;1.40;;
65871;SDS011;52653;50.080;21.992;2023-03-26T14:00:16;4.00;;;1.50;;
65871;SDS011;52653;50.080;21.992;2023-03-26T14:02:55;3.40;;;1.60;;
65871;SDS011;52653;50.080;21.992;2023-03-26T14:05:43;2.70;;;1.10;;
65871;SDS011;52653;50.080;21.992;2023-03-26T14:08:29;2.80;;;1.00;;
65871;SDS011;52653;50.080;21.992;2023-03-26T14:11:07;4.30;;;1.20;;
65871;SDS011;52653;50.080;21.992;2023-03-26T14:13:54;3.30;;;1.30;;
65871;SDS011;52653;50.080;21.992;2023-03-26T14:16:45;3.90;;;1.50;;
65871;SDS011;52653;50.080;21.992;2023-03-26T14:22:52;4.20;;;1.60;;
65871;SDS011;52653;50.080;21.992;2023-03-26T14:31:34;2.90;;;1.10;;
65871;SDS011;52653;50.080;21.992;2023-03-26T14:37:27;6.30;;;3.30;;
65871;SDS011;52653;50.080;21.992;2023-03-26T14:40:29;6.50;;;3.00;;
65871;SDS011;52653;50.080;21.992;2023-03-26T14:46:26;8.40;;;4.60;;
65871;SDS011;52653;50.080;21.992;2023-03-26T14:49:31;11.80;;;6.60;;
65871;SDS011;52653;50.080;21.992;2023-03-26T14:52:23;14.10;;;8.70;;
65871;SDS011;52653;50.080;21.992;2023-03-26T14:55:10;6.70;;;2.60;;
65871;SDS011;52653;50.080;21.992;2023-03-26T15:10:37;11.30;;;10.10;;
65871;SDS011;52653;50.080;21.992;2023-03-26T15:23:51;10.20;;;4.80;;
65871;SDS011;52653;50.080;21.992;2023-03-26T15:34:00;6.90;;;3.70;;
65871;SDS011;52653;50.080;21.992;2023-03-26T15:40:09;10.50;;;4.70;;
65871;SDS011;52653;50.080;21.992;2023-03-26T15:43:23;12.90;;;5.70;;
65871;SDS011;52653;50.080;21.992;2023-03-26T15:46:20;15.00;;;8.40;;
65871;SDS011;52653;50.080;21.992;2023-03-26T15:49:03;14.60;;;8.60;;
65871;SDS011;52653;50.080;21.992;2023-03-26T15:52:06;12.10;;;6.60;;
65871;SDS011;52653;50.080;21.992;2023-03-26T15:54:52;11.10;;;6.20;;
65871;SDS011;52653;50.080;21.992;2023-03-26T15:57:53;10.90;;;5.70;;
65871;SDS011;52653;50.080;21.992;2023-03-26T16:00:30;9.50;;;5.90;;
65871;SDS011;52653;50.080;21.992;2023-03-26T16:03:30;15.60;;;9.50;;
65871;SDS011;52653;50.080;21.992;2023-03-26T16:06:34;10.60;;;6.00;;
65871;SDS011;52653;50.080;21.992;2023-03-26T16:09:25;10.00;;;6.20;;
65871;SDS011;52653;50.080;21.992;2023-03-26T16:12:33;11.50;;;7.10;;
65871;SDS011;52653;50.080;21.992;2023-03-26T16:15:34;9.00;;;6.20;;
65871;SDS011;52653;50.080;21.992;2023-03-26T16:18:18;9.50;;;6.70;;
65871;SDS011;52653;50.080;21.992;2023-03-26T16:24:26;14.80;;;9.50;;
65871;SDS011;52653;50.080;21.992;2023-03-26T16:27:24;15.60;;;8.40;;
65871;SDS011;52653;50.080;21.992;2023-03-26T16:33:10;16.00;;;7.90;;
65871;SDS011;52653;50.080;21.992;2023-03-26T16:35:58;14.60;;;7.50;;
65871;SDS011;52653;50.080;21.992;2023-03-26T16:38:53;17.20;;;8.20;;
65871;SDS011;52653;50.080;21.992;2023-03-26T16:41:52;36.00;;;20.20;;
65871;SDS011;52653;50.080;21.992;2023-03-26T16:44:37;29.10;;;18.80;;
65871;SDS011;52653;50.080;21.992;2023-03-26T16:47:22;21.20;;;13.90;;
65871;SDS011;52653;50.080;21.992;2023-03-26T16:50:04;23.70;;;14.90;;
65871;SDS011;52653;50.080;21.992;2023-03-26T16:52:53;31.60;;;19.10;;
65871;SDS011;52653;50.080;21.992;2023-03-26T16:55:33;28.70;;;18.10;;
65871;SDS011;52653;50.080;21.992;2023-03-26T16:58:14;29.90;;;18.50;;
65871;SDS011;52653;50.080;21.992;2023-03-26T17:01:09;26.90;;;17.50;;
65871;SDS011;52653;50.080;21.992;2023-03-26T17:03:53;27.90;;;16.90;;
65871;SDS011;52653;50.080;21.992;2023-03-26T17:06:49;31.00;;;20.00;;
65871;SDS011;52653;50.080;21.992;2023-03-26T17:12:21;33.90;;;21.20;;
65871;SDS011;52653;50.080;21.992;2023-03-26T17:15:18;27.60;;;19.30;;
65871;SDS011;52653;50.080;21.992;2023-03-26T17:18:10;28.60;;;19.30;;
65871;SDS011;52653;50.080;21.992;2023-03-26T17:20:59;28.50;;;19.00;;
65871;SDS011;52653;50.080;21.992;2023-03-26T17:23:39;28.60;;;20.00;;
65871;SDS011;52653;50.080;21.992;2023-03-26T17:26:32;31.00;;;20.30;;
65871;SDS011;52653;50.080;21.992;2023-03-26T17:29:18;30.30;;;20.10;;
65871;SDS011;52653;50.080;21.992;2023-03-26T17:34:42;31.20;;;19.80;;
65871;SDS011;52653;50.080;21.992;2023-03-26T17:37:45;31.10;;;20.80;;
65871;SDS011;52653;50.080;21.992;2023-03-26T17:43:41;29.40;;;19.00;;
65871;SDS011;52653;50.080;21.992;2023-03-26T17:46:24;29.20;;;18.50;;
65871;SDS011;52653;50.080;21.992;2023-03-26T17:49:11;26.80;;;17.60;;
65871;SDS011;52653;50.080;21.992;2023-03-26T17:52:13;21.60;;;13.70;;
65871;SDS011;52653;50.080;21.992;2023-03-26T17:54:58;21.10;;;13.20;;
65871;SDS011;52653;50.080;21.992;2023-03-26T17:57:44;20.70;;;13.40;;
65871;SDS011;52653;50.080;21.992;2023-03-26T18:00:24;19.90;;;13.40;;
65871;SDS011;52653;50.080;21.992;2023-03-26T18:03:12;22.80;;;15.50;;
65871;SDS011;52653;50.080;21.992;2023-03-26T18:05:53;17.50;;;11.70;;
65871;SDS011;52653;50.080;21.992;2023-03-26T18:08:56;22.10;;;16.40;;
65871;SDS011;52653;50.080;21.992;2023-03-26T18:11:52;25.20;;;17.70;;
65871;SDS011;52653;50.080;21.992;2023-03-26T18:15:05;26.00;;;19.50;;
65871;SDS011;52653;50.080;21.992;2023-03-26T18:17:53;21.60;;;15.60;;
65871;SDS011;52653;50.080;21.992;2023-03-26T18:20:32;28.40;;;20.80;;
65871;SDS011;52653;50.080;21.992;2023-03-26T18:23:24;30.90;;;22.30;;
65871;SDS011;52653;50.080;21.992;2023-03-26T18:26:11;25.70;;;19.40;;
65871;SDS011;52653;50.080;21.992;2023-03-26T18:29:14;26.60;;;18.00;;